Sv.knyaz Vladimir — UBKI2 — position and weather

sailwx.info

Track history (hours):
 
Tides and Currents Weather Stations Pressure Air Temp Water Temp Dewpoint Dewpoint Depression Visibility Wind Speed Wind Dir Waves Ship Positions

Sv.knyaz Vladimir

Last reported at 2015-May-24 07:33 UTC. Time now 2015-May-27 13:52 UTC.
Position N 50°33' E 000°20'.

Length 128 m; draft 4 m.

Type: Cargo ship. MMSI: 273350360.

Date/timePositionNaut miles runAvg speedWind from/ knotsBaromVisibWave heightAir tempDewpointWater temp
2015-May-24 07:33N 50°33' E 000°20'11 9.9
2015-May-24 06:24N 50°36' E 000°37'8 9.3
2015-May-24 05:34N 50°40' E 000°48'9 8.7
2015-May-24 04:33N 50°45' E 000°59'8 7.8
2015-May-24 03:33N 50°50' E 001°09'7 7.2
2015-May-24 02:34N 50°54' E 001°18'8 7.6
2015-May-24 01:33N 50°60' E 001°26'9 9.4
2015-May-24 00:34N 51°06' E 001°37'9 8.8
2015-May-23 23:33N 51°03' E 001°50'1010.1
2015-May-23 22:34N 51°03' E 002°06'10 9.6
2015-May-23 21:33N 51°04' E 002°21'1 1.0
2015-May-23 20:33N 51°03' E 002°22'1 0.7
2015-May-23 19:32N 51°03' E 002°21'0 0.0
2015-May-23 18:29N 51°03' E 002°21'0 0.0
2015-May-23 17:05N 51°03' E 002°21'0 0.0
2015-May-23 16:26N 51°03' E 002°21'0 0.0
2015-May-23 15:08N 51°03' E 002°21'0 0.0
2015-May-23 14:25N 51°03' E 002°21'0 0.0
2015-May-23 13:16N 51°03' E 002°21'0 0.0
2015-May-23 12:16N 51°03' E 002°21'0 0.0
2015-May-23 11:25N 51°03' E 002°21'0 0.0
2015-May-23 09:31N 51°03' E 002°21'0 0.0
2015-May-23 08:31N 51°03' E 002°21'0 0.0
2015-May-23 07:31N 51°03' E 002°21'0 0.0
2015-May-23 05:33N 51°03' E 002°21'0 0.0
2015-May-23 03:10N 51°03' E 002°21'0 0.0
2015-May-23 02:22N 51°03' E 002°21'0 0.0
2015-May-23 01:22N 51°03' E 002°21'0 0.0
2015-May-23 00:22N 51°03' E 002°21'0 0.0
2015-May-22 22:31N 51°03' E 002°21'0 0.0
2015-May-22 21:13N 51°03' E 002°21'0 0.0
2015-May-22 18:10N 51°03' E 002°21'0 0.0
2015-May-22 17:31N 51°03' E 002°21'0 0.0
2015-May-22 16:25N 51°03' E 002°21'0 0.0
2015-May-22 15:25N 51°03' E 002°21'0 0.0
2015-May-22 12:16N 51°03' E 002°21'0 0.0
2015-May-22 10:32N 51°03' E 002°21'0 0.0
2015-May-22 09:20N 51°03' E 002°21'0 0.0
2015-May-22 08:23N 51°03' E 002°21'0 0.0
2015-May-22 07:32N 51°03' E 002°21'0 0.0
2015-May-22 06:32N 51°03' E 002°21'0 0.0
2015-May-22 05:20N 51°03' E 002°21'0 0.0
2015-May-22 04:25N 51°03' E 002°21'0 0.0
2015-May-22 02:10N 51°03' E 002°21'0 0.0
2015-May-21 23:17N 51°03' E 002°21'0 0.0
2015-May-21 21:31N 51°03' E 002°21'0 0.0
2015-May-21 20:33N 51°03' E 002°21'0 0.0
2015-May-21 19:32N 51°03' E 002°21'0 0.0
2015-May-21 18:33N 51°03' E 002°21'0 0.2
2015-May-21 17:33N 51°03' E 002°21'2 2.0
2015-May-21 16:33N 51°04' E 002°18'1110.9
2015-May-21 15:33N 51°02' E 002°01'9 9.1
2015-May-21 14:34N 51°02' E 001°47'1110.8
2015-May-21 13:33N 50°56' E 001°32'1211.5
2015-May-21 12:32N 50°46' E 001°25'1210.4
2015-May-21 11:22N 50°36' E 001°13'910.7
2015-May-21 10:30N 50°30' E 001°02'  
2015-May-16 08:18N 38°51' W 009°50'5 6.5
2015-May-16 07:33N 38°46' W 009°50'6 5.8
2015-May-16 06:33N 38°41' W 009°49'6 5.6
2015-May-16 05:33N 38°35' W 009°48'6 5.6
2015-May-16 04:33N 38°29' W 009°46'5 5.2
2015-May-16 03:33N 38°24' W 009°45'6 5.1
2015-May-16 02:28N 38°19' W 009°43'5 4.9
2015-May-16 01:31N 38°14' W 009°41'6 4.9
2015-May-16 00:16N 38°09' W 009°40'3 4.4
2015-May-15 23:30N 38°05' W 009°39'4 4.1
2015-May-15 22:33N 38°01' W 009°38'4 3.9
2015-May-15 21:31N 37°57' W 009°37'3 3.6
2015-May-15 20:33N 37°54' W 009°36'3 3.1
2015-May-15 19:33N 37°51' W 009°35'3 2.8
2015-May-15 18:33N 37°48' W 009°34'3 2.8
2015-May-15 17:33N 37°46' W 009°34'3 3.3
2015-May-15 16:32N 37°42' W 009°33'4 3.4
2015-May-15 15:29N 37°39' W 009°32'65 4.0
2015-May-14 23:13N 36°41' W 008°54'48 7.1
2015-May-14 16:28N 36°26' W 007°57'8 8.3
2015-May-14 15:33N 36°23' W 007°48'  
Track history (hours):
 
Tides and Currents Weather Stations Pressure Air Temp Water Temp Dewpoint Dewpoint Depression Visibility Wind Speed Wind Dir Waves Ship Positions

Sv.knyaz Vladimir

Last reported at 2015-May-24 07:33 UTC. Time now 2015-May-27 13:52 UTC.
Position N 50°33' E 000°20'.

Length 128 m; draft 4 m.

Type: Cargo ship. MMSI: 273350360.

Date/timePositionNaut miles runAvg speedWind from/ knotsBaromVisibWave heightAir tempDewpointWater temp
2015-May-24 07:33N 50°33' E 000°20'11 9.9
2015-May-24 06:24N 50°36' E 000°37'8 9.3
2015-May-24 05:34N 50°40' E 000°48'9 8.7
2015-May-24 04:33N 50°45' E 000°59'8 7.8
2015-May-24 03:33N 50°50' E 001°09'7 7.2
2015-May-24 02:34N 50°54' E 001°18'8 7.6
2015-May-24 01:33N 50°60' E 001°26'9 9.4
2015-May-24 00:34N 51°06' E 001°37'9 8.8
2015-May-23 23:33N 51°03' E 001°50'1010.1
2015-May-23 22:34N 51°03' E 002°06'10 9.6
2015-May-23 21:33N 51°04' E 002°21'1 1.0
2015-May-23 20:33N 51°03' E 002°22'1 0.7
2015-May-23 19:32N 51°03' E 002°21'0 0.0
2015-May-23 18:29N 51°03' E 002°21'0 0.0
2015-May-23 17:05N 51°03' E 002°21'0 0.0
2015-May-23 16:26N 51°03' E 002°21'0 0.0
2015-May-23 15:08N 51°03' E 002°21'0 0.0
2015-May-23 14:25N 51°03' E 002°21'0 0.0
2015-May-23 13:16N 51°03' E 002°21'0 0.0
2015-May-23 12:16N 51°03' E 002°21'0 0.0
2015-May-23 11:25N 51°03' E 002°21'0 0.0
2015-May-23 09:31N 51°03' E 002°21'0 0.0
2015-May-23 08:31N 51°03' E 002°21'0 0.0
2015-May-23 07:31N 51°03' E 002°21'0 0.0
2015-May-23 05:33N 51°03' E 002°21'0 0.0
2015-May-23 03:10N 51°03' E 002°21'0 0.0
2015-May-23 02:22N 51°03' E 002°21'0 0.0
2015-May-23 01:22N 51°03' E 002°21'0 0.0
2015-May-23 00:22N 51°03' E 002°21'0 0.0
2015-May-22 22:31N 51°03' E 002°21'0 0.0
2015-May-22 21:13N 51°03' E 002°21'0 0.0
2015-May-22 18:10N 51°03' E 002°21'0 0.0
2015-May-22 17:31N 51°03' E 002°21'0 0.0
2015-May-22 16:25N 51°03' E 002°21'0 0.0
2015-May-22 15:25N 51°03' E 002°21'0 0.0
2015-May-22 12:16N 51°03' E 002°21'0 0.0
2015-May-22 10:32N 51°03' E 002°21'0 0.0
2015-May-22 09:20N 51°03' E 002°21'0 0.0
2015-May-22 08:23N 51°03' E 002°21'0 0.0
2015-May-22 07:32N 51°03' E 002°21'0 0.0
2015-May-22 06:32N 51°03' E 002°21'0 0.0
2015-May-22 05:20N 51°03' E 002°21'0 0.0
2015-May-22 04:25N 51°03' E 002°21'0 0.0
2015-May-22 02:10N 51°03' E 002°21'0 0.0
2015-May-21 23:17N 51°03' E 002°21'0 0.0
2015-May-21 21:31N 51°03' E 002°21'0 0.0
2015-May-21 20:33N 51°03' E 002°21'0 0.0
2015-May-21 19:32N 51°03' E 002°21'0 0.0
2015-May-21 18:33N 51°03' E 002°21'0 0.2
2015-May-21 17:33N 51°03' E 002°21'2 2.0
2015-May-21 16:33N 51°04' E 002°18'1110.9
2015-May-21 15:33N 51°02' E 002°01'9 9.1
2015-May-21 14:34N 51°02' E 001°47'1110.8
2015-May-21 13:33N 50°56' E 001°32'1211.5
2015-May-21 12:32N 50°46' E 001°25'1210.4
2015-May-21 11:22N 50°36' E 001°13'910.7
2015-May-21 10:30N 50°30' E 001°02'  
2015-May-16 08:18N 38°51' W 009°50'5 6.5
2015-May-16 07:33N 38°46' W 009°50'6 5.8
2015-May-16 06:33N 38°41' W 009°49'6 5.6
2015-May-16 05:33N 38°35' W 009°48'6 5.6
2015-May-16 04:33N 38°29' W 009°46'5 5.2
2015-May-16 03:33N 38°24' W 009°45'6 5.1
2015-May-16 02:28N 38°19' W 009°43'5 4.9
2015-May-16 01:31N 38°14' W 009°41'6 4.9
2015-May-16 00:16N 38°09' W 009°40'3 4.4
2015-May-15 23:30N 38°05' W 009°39'4 4.1
2015-May-15 22:33N 38°01' W 009°38'4 3.9
2015-May-15 21:31N 37°57' W 009°37'3 3.6
2015-May-15 20:33N 37°54' W 009°36'3 3.1
2015-May-15 19:33N 37°51' W 009°35'3 2.8
2015-May-15 18:33N 37°48' W 009°34'3 2.8
2015-May-15 17:33N 37°46' W 009°34'3 3.3
2015-May-15 16:32N 37°42' W 009°33'4 3.4
2015-May-15 15:29N 37°39' W 009°32'65 4.0
2015-May-14 23:13N 36°41' W 008°54'48 7.1
2015-May-14 16:28N 36°26' W 007°57'8 8.3
2015-May-14 15:33N 36°23' W 007°48'  

Dump ship's entire track history